sensor_id;sensor_type;location;lat;lon;timestamp;P1;durP1;ratioP1;P2;durP2;ratioP2
24147;SDS011;12309;51.450;-2.624;2024-01-30T00:01:52;0.80;;;0.50;;
24147;SDS011;12309;51.450;-2.624;2024-01-30T00:04:18;1.10;;;0.40;;
24147;SDS011;12309;51.450;-2.624;2024-01-30T00:06:44;0.90;;;0.60;;
24147;SDS011;12309;51.450;-2.624;2024-01-30T00:09:10;2.47;;;0.90;;
24147;SDS011;12309;51.450;-2.624;2024-01-30T00:11:36;1.40;;;0.67;;
24147;SDS011;12309;51.450;-2.624;2024-01-30T00:14:02;1.30;;;0.53;;
24147;SDS011;12309;51.450;-2.624;2024-01-30T00:16:28;1.60;;;0.60;;
24147;SDS011;12309;51.450;-2.624;2024-01-30T00:18:54;1.43;;;0.80;;
24147;SDS011;12309;51.450;-2.624;2024-01-30T00:21:20;1.60;;;0.70;;
24147;SDS011;12309;51.450;-2.624;2024-01-30T00:23:46;2.37;;;0.83;;
24147;SDS011;12309;51.450;-2.624;2024-01-30T00:26:12;3.10;;;0.83;;
24147;SDS011;12309;51.450;-2.624;2024-01-30T00:28:40;1.20;;;0.80;;
24147;SDS011;12309;51.450;-2.624;2024-01-30T00:31:09;1.67;;;0.90;;
24147;SDS011;12309;51.450;-2.624;2024-01-30T00:33:37;1.47;;;0.73;;
24147;SDS011;12309;51.450;-2.624;2024-01-30T00:36:05;0.80;;;0.80;;
24147;SDS011;12309;51.450;-2.624;2024-01-30T00:38:31;1.50;;;0.83;;
24147;SDS011;12309;51.450;-2.624;2024-01-30T00:40:57;1.67;;;0.90;;
24147;SDS011;12309;51.450;-2.624;2024-01-30T00:43:23;2.30;;;1.00;;
24147;SDS011;12309;51.450;-2.624;2024-01-30T00:45:50;1.03;;;0.93;;
24147;SDS011;12309;51.450;-2.624;2024-01-30T00:48:17;0.83;;;0.80;;
24147;SDS011;12309;51.450;-2.624;2024-01-30T00:50:44;0.90;;;0.90;;
24147;SDS011;12309;51.450;-2.624;2024-01-30T00:53:09;0.80;;;0.80;;
24147;SDS011;12309;51.450;-2.624;2024-01-30T00:55:36;1.73;;;1.00;;
24147;SDS011;12309;51.450;-2.624;2024-01-30T00:58:01;1.27;;;1.00;;
24147;SDS011;12309;51.450;-2.624;2024-01-30T01:00:28;1.20;;;1.10;;
24147;SDS011;12309;51.450;-2.624;2024-01-30T01:02:54;1.40;;;1.20;;
24147;SDS011;12309;51.450;-2.624;2024-01-30T01:05:20;1.47;;;1.30;;
24147;SDS011;12309;51.450;-2.624;2024-01-30T01:07:46;2.40;;;1.40;;
24147;SDS011;12309;51.450;-2.624;2024-01-30T01:10:13;3.67;;;1.23;;
24147;SDS011;12309;51.450;-2.624;2024-01-30T01:12:39;1.77;;;0.90;;
24147;SDS011;12309;51.450;-2.624;2024-01-30T01:15:05;1.70;;;1.27;;
24147;SDS011;12309;51.450;-2.624;2024-01-30T01:17:34;3.70;;;1.83;;
24147;SDS011;12309;51.450;-2.624;2024-01-30T01:20:00;1.63;;;1.27;;
24147;SDS011;12309;51.450;-2.624;2024-01-30T01:22:26;3.37;;;1.67;;
24147;SDS011;12309;51.450;-2.624;2024-01-30T01:24:52;2.40;;;1.47;;
24147;SDS011;12309;51.450;-2.624;2024-01-30T01:27:18;4.57;;;1.80;;
24147;SDS011;12309;51.450;-2.624;2024-01-30T01:29:44;4.07;;;1.70;;
24147;SDS011;12309;51.450;-2.624;2024-01-30T01:32:10;2.00;;;1.27;;
24147;SDS011;12309;51.450;-2.624;2024-01-30T01:34:36;3.77;;;1.60;;
24147;SDS011;12309;51.450;-2.624;2024-01-30T01:37:02;2.40;;;1.40;;
24147;SDS011;12309;51.450;-2.624;2024-01-30T01:39:28;1.70;;;1.30;;
24147;SDS011;12309;51.450;-2.624;2024-01-30T01:41:54;2.43;;;1.30;;
24147;SDS011;12309;51.450;-2.624;2024-01-30T01:44:19;2.23;;;1.20;;
24147;SDS011;12309;51.450;-2.624;2024-01-30T01:46:45;2.93;;;1.70;;
24147;SDS011;12309;51.450;-2.624;2024-01-30T01:49:11;3.70;;;1.83;;
24147;SDS011;12309;51.450;-2.624;2024-01-30T01:51:37;2.33;;;1.70;;
24147;SDS011;12309;51.450;-2.624;2024-01-30T01:54:06;2.20;;;1.73;;
24147;SDS011;12309;51.450;-2.624;2024-01-30T01:56:33;4.03;;;1.90;;
24147;SDS011;12309;51.450;-2.624;2024-01-30T01:59:00;2.53;;;1.53;;
24147;SDS011;12309;51.450;-2.624;2024-01-30T02:01:30;1.20;;;1.13;;
24147;SDS011;12309;51.450;-2.624;2024-01-30T02:03:58;2.20;;;1.50;;
24147;SDS011;12309;51.450;-2.624;2024-01-30T02:06:24;1.87;;;1.40;;
24147;SDS011;12309;51.450;-2.624;2024-01-30T02:08:50;1.70;;;1.40;;
24147;SDS011;12309;51.450;-2.624;2024-01-30T02:11:16;3.57;;;1.67;;
24147;SDS011;12309;51.450;-2.624;2024-01-30T02:13:43;3.67;;;1.50;;
24147;SDS011;12309;51.450;-2.624;2024-01-30T02:16:08;2.90;;;1.60;;
24147;SDS011;12309;51.450;-2.624;2024-01-30T02:18:35;2.73;;;1.33;;
24147;SDS011;12309;51.450;-2.624;2024-01-30T02:21:06;2.20;;;1.37;;
24147;SDS011;12309;51.450;-2.624;2024-01-30T02:23:32;2.67;;;1.43;;
24147;SDS011;12309;51.450;-2.624;2024-01-30T02:25:59;2.50;;;1.40;;
24147;SDS011;12309;51.450;-2.624;2024-01-30T02:28:25;2.43;;;1.47;;
24147;SDS011;12309;51.450;-2.624;2024-01-30T02:30:52;4.50;;;1.70;;
24147;SDS011;12309;51.450;-2.624;2024-01-30T02:33:18;1.70;;;1.33;;
24147;SDS011;12309;51.450;-2.624;2024-01-30T02:35:44;1.20;;;1.10;;
24147;SDS011;12309;51.450;-2.624;2024-01-30T02:38:10;1.30;;;1.20;;
24147;SDS011;12309;51.450;-2.624;2024-01-30T02:40:36;1.33;;;1.03;;
24147;SDS011;12309;51.450;-2.624;2024-01-30T02:43:02;1.20;;;1.10;;
24147;SDS011;12309;51.450;-2.624;2024-01-30T02:45:28;1.67;;;1.10;;
24147;SDS011;12309;51.450;-2.624;2024-01-30T02:47:54;1.87;;;1.10;;
24147;SDS011;12309;51.450;-2.624;2024-01-30T02:50:19;1.17;;;1.07;;
24147;SDS011;12309;51.450;-2.624;2024-01-30T02:52:45;2.33;;;1.10;;
24147;SDS011;12309;51.450;-2.624;2024-01-30T02:55:11;1.03;;;0.97;;
24147;SDS011;12309;51.450;-2.624;2024-01-30T02:57:37;1.27;;;1.10;;
24147;SDS011;12309;51.450;-2.624;2024-01-30T03:00:04;1.00;;;0.90;;
24147;SDS011;12309;51.450;-2.624;2024-01-30T03:02:31;0.97;;;0.90;;
24147;SDS011;12309;51.450;-2.624;2024-01-30T03:04:57;1.80;;;1.00;;
24147;SDS011;12309;51.450;-2.624;2024-01-30T03:07:23;1.10;;;1.00;;
24147;SDS011;12309;51.450;-2.624;2024-01-30T03:09:49;1.13;;;1.03;;
24147;SDS011;12309;51.450;-2.624;2024-01-30T03:12:15;1.90;;;1.20;;
24147;SDS011;12309;51.450;-2.624;2024-01-30T03:14:40;1.27;;;1.10;;
24147;SDS011;12309;51.450;-2.624;2024-01-30T03:17:06;1.17;;;1.00;;
24147;SDS011;12309;51.450;-2.624;2024-01-30T03:19:32;1.30;;;1.00;;
24147;SDS011;12309;51.450;-2.624;2024-01-30T03:21:58;2.40;;;1.27;;
24147;SDS011;12309;51.450;-2.624;2024-01-30T03:24:24;1.10;;;1.10;;
24147;SDS011;12309;51.450;-2.624;2024-01-30T03:26:49;2.30;;;1.20;;
24147;SDS011;12309;51.450;-2.624;2024-01-30T03:29:15;2.97;;;1.37;;
24147;SDS011;12309;51.450;-2.624;2024-01-30T03:31:41;2.53;;;1.27;;
24147;SDS011;12309;51.450;-2.624;2024-01-30T03:34:07;1.13;;;1.10;;
24147;SDS011;12309;51.450;-2.624;2024-01-30T03:36:33;1.50;;;1.10;;
24147;SDS011;12309;51.450;-2.624;2024-01-30T03:38:59;2.00;;;1.20;;
24147;SDS011;12309;51.450;-2.624;2024-01-30T03:41:25;1.67;;;1.10;;
24147;SDS011;12309;51.450;-2.624;2024-01-30T03:43:51;1.63;;;1.20;;
24147;SDS011;12309;51.450;-2.624;2024-01-30T03:46:17;1.43;;;1.10;;
24147;SDS011;12309;51.450;-2.624;2024-01-30T03:48:43;1.30;;;1.20;;
24147;SDS011;12309;51.450;-2.624;2024-01-30T03:51:09;1.20;;;1.10;;
24147;SDS011;12309;51.450;-2.624;2024-01-30T03:53:39;3.53;;;1.33;;
24147;SDS011;12309;51.450;-2.624;2024-01-30T03:56:06;3.70;;;1.50;;
24147;SDS011;12309;51.450;-2.624;2024-01-30T03:58:32;2.17;;;1.13;;
24147;SDS011;12309;51.450;-2.624;2024-01-30T04:00:58;1.63;;;1.03;;
24147;SDS011;12309;51.450;-2.624;2024-01-30T04:03:24;1.83;;;1.10;;
24147;SDS011;12309;51.450;-2.624;2024-01-30T04:05:51;1.10;;;1.10;;
24147;SDS011;12309;51.450;-2.624;2024-01-30T04:08:17;5.67;;;1.50;;
24147;SDS011;12309;51.450;-2.624;2024-01-30T04:10:43;1.87;;;1.30;;
24147;SDS011;12309;51.450;-2.624;2024-01-30T04:13:09;1.83;;;1.23;;
24147;SDS011;12309;51.450;-2.624;2024-01-30T04:15:35;3.90;;;1.30;;
24147;SDS011;12309;51.450;-2.624;2024-01-30T04:18:01;1.30;;;1.20;;
24147;SDS011;12309;51.450;-2.624;2024-01-30T04:20:26;1.23;;;1.10;;
24147;SDS011;12309;51.450;-2.624;2024-01-30T04:22:52;1.60;;;1.10;;
24147;SDS011;12309;51.450;-2.624;2024-01-30T04:25:18;1.10;;;1.10;;
24147;SDS011;12309;51.450;-2.624;2024-01-30T04:27:44;2.07;;;0.93;;
24147;SDS011;12309;51.450;-2.624;2024-01-30T04:30:10;1.80;;;1.10;;
24147;SDS011;12309;51.450;-2.624;2024-01-30T04:32:36;1.13;;;0.90;;
24147;SDS011;12309;51.450;-2.624;2024-01-30T04:35:02;2.97;;;1.10;;
24147;SDS011;12309;51.450;-2.624;2024-01-30T04:37:28;1.93;;;1.10;;
24147;SDS011;12309;51.450;-2.624;2024-01-30T04:39:54;1.37;;;1.07;;
24147;SDS011;12309;51.450;-2.624;2024-01-30T04:42:20;1.93;;;1.10;;
24147;SDS011;12309;51.450;-2.624;2024-01-30T04:44:45;2.07;;;1.23;;
24147;SDS011;12309;51.450;-2.624;2024-01-30T04:47:11;1.67;;;1.10;;
24147;SDS011;12309;51.450;-2.624;2024-01-30T04:49:40;2.40;;;1.33;;
24147;SDS011;12309;51.450;-2.624;2024-01-30T04:52:06;4.70;;;1.50;;
24147;SDS011;12309;51.450;-2.624;2024-01-30T04:54:32;2.10;;;1.20;;
24147;SDS011;12309;51.450;-2.624;2024-01-30T04:56:59;3.37;;;1.33;;
24147;SDS011;12309;51.450;-2.624;2024-01-30T04:59:25;2.60;;;1.50;;
24147;SDS011;12309;51.450;-2.624;2024-01-30T05:01:51;2.13;;;1.27;;
24147;SDS011;12309;51.450;-2.624;2024-01-30T05:04:17;3.70;;;1.80;;
24147;SDS011;12309;51.450;-2.624;2024-01-30T05:06:43;2.97;;;1.40;;
24147;SDS011;12309;51.450;-2.624;2024-01-30T05:09:09;5.50;;;1.70;;
24147;SDS011;12309;51.450;-2.624;2024-01-30T05:11:38;3.33;;;1.50;;
24147;SDS011;12309;51.450;-2.624;2024-01-30T05:14:06;3.10;;;1.53;;
24147;SDS011;12309;51.450;-2.624;2024-01-30T05:16:33;5.07;;;1.60;;
24147;SDS011;12309;51.450;-2.624;2024-01-30T05:18:59;4.03;;;1.60;;
24147;SDS011;12309;51.450;-2.624;2024-01-30T05:21:25;2.80;;;1.50;;
24147;SDS011;12309;51.450;-2.624;2024-01-30T05:23:51;4.57;;;1.80;;
24147;SDS011;12309;51.450;-2.624;2024-01-30T05:26:16;3.53;;;1.70;;
24147;SDS011;12309;51.450;-2.624;2024-01-30T05:28:42;4.93;;;1.90;;
24147;SDS011;12309;51.450;-2.624;2024-01-30T05:31:09;3.77;;;1.90;;
24147;SDS011;12309;51.450;-2.624;2024-01-30T05:33:35;4.47;;;1.80;;
24147;SDS011;12309;51.450;-2.624;2024-01-30T05:36:01;3.07;;;1.80;;
24147;SDS011;12309;51.450;-2.624;2024-01-30T05:38:27;3.40;;;1.80;;
24147;SDS011;12309;51.450;-2.624;2024-01-30T05:40:53;3.43;;;1.80;;
24147;SDS011;12309;51.450;-2.624;2024-01-30T05:43:20;3.37;;;1.80;;
24147;SDS011;12309;51.450;-2.624;2024-01-30T05:45:45;3.70;;;1.90;;
24147;SDS011;12309;51.450;-2.624;2024-01-30T05:48:11;4.70;;;2.00;;
24147;SDS011;12309;51.450;-2.624;2024-01-30T05:50:37;4.90;;;1.73;;
24147;SDS011;12309;51.450;-2.624;2024-01-30T05:53:02;3.10;;;1.77;;
24147;SDS011;12309;51.450;-2.624;2024-01-30T05:55:28;3.70;;;1.93;;
24147;SDS011;12309;51.450;-2.624;2024-01-30T05:57:54;5.10;;;1.80;;
24147;SDS011;12309;51.450;-2.624;2024-01-30T06:00:20;4.23;;;1.77;;
24147;SDS011;12309;51.450;-2.624;2024-01-30T06:02:46;4.03;;;2.10;;
24147;SDS011;12309;51.450;-2.624;2024-01-30T06:05:11;3.60;;;2.00;;
24147;SDS011;12309;51.450;-2.624;2024-01-30T06:07:38;6.53;;;2.37;;
24147;SDS011;12309;51.450;-2.624;2024-01-30T06:10:03;3.13;;;1.90;;
24147;SDS011;12309;51.450;-2.624;2024-01-30T06:12:29;4.70;;;2.40;;
24147;SDS011;12309;51.450;-2.624;2024-01-30T06:14:55;5.57;;;2.70;;
24147;SDS011;12309;51.450;-2.624;2024-01-30T06:17:22;5.60;;;2.60;;
24147;SDS011;12309;51.450;-2.624;2024-01-30T06:19:48;8.27;;;2.70;;
24147;SDS011;12309;51.450;-2.624;2024-01-30T06:22:14;8.23;;;2.93;;
24147;SDS011;12309;51.450;-2.624;2024-01-30T06:24:40;6.20;;;2.50;;
24147;SDS011;12309;51.450;-2.624;2024-01-30T06:27:06;7.90;;;3.07;;
24147;SDS011;12309;51.450;-2.624;2024-01-30T06:29:32;7.57;;;2.70;;
24147;SDS011;12309;51.450;-2.624;2024-01-30T06:31:57;10.07;;;3.33;;
24147;SDS011;12309;51.450;-2.624;2024-01-30T06:34:23;10.00;;;3.10;;
24147;SDS011;12309;51.450;-2.624;2024-01-30T06:36:51;8.13;;;3.10;;
24147;SDS011;12309;51.450;-2.624;2024-01-30T06:39:16;7.03;;;3.13;;
24147;SDS011;12309;51.450;-2.624;2024-01-30T06:41:42;8.97;;;3.63;;
24147;SDS011;12309;51.450;-2.624;2024-01-30T06:44:08;7.13;;;3.03;;
24147;SDS011;12309;51.450;-2.624;2024-01-30T06:46:34;9.27;;;3.13;;
24147;SDS011;12309;51.450;-2.624;2024-01-30T06:49:00;8.20;;;3.00;;
24147;SDS011;12309;51.450;-2.624;2024-01-30T06:51:26;10.03;;;3.43;;
24147;SDS011;12309;51.450;-2.624;2024-01-30T06:53:52;8.43;;;3.27;;
24147;SDS011;12309;51.450;-2.624;2024-01-30T06:56:17;8.40;;;3.20;;
24147;SDS011;12309;51.450;-2.624;2024-01-30T06:58:49;8.63;;;3.30;;
24147;SDS011;12309;51.450;-2.624;2024-01-30T07:01:15;9.23;;;3.10;;
24147;SDS011;12309;51.450;-2.624;2024-01-30T07:03:42;11.47;;;3.43;;
24147;SDS011;12309;51.450;-2.624;2024-01-30T07:06:08;6.50;;;2.90;;
24147;SDS011;12309;51.450;-2.624;2024-01-30T07:08:34;9.33;;;3.63;;
24147;SDS011;12309;51.450;-2.624;2024-01-30T07:11:00;12.33;;;3.47;;
24147;SDS011;12309;51.450;-2.624;2024-01-30T07:13:27;9.70;;;3.07;;
24147;SDS011;12309;51.450;-2.624;2024-01-30T07:15:53;9.13;;;3.40;;
24147;SDS011;12309;51.450;-2.624;2024-01-30T07:18:19;9.00;;;3.70;;
24147;SDS011;12309;51.450;-2.624;2024-01-30T07:20:45;10.70;;;3.33;;
24147;SDS011;12309;51.450;-2.624;2024-01-30T07:23:12;10.30;;;3.43;;
24147;SDS011;12309;51.450;-2.624;2024-01-30T07:25:41;9.47;;;3.17;;
24147;SDS011;12309;51.450;-2.624;2024-01-30T07:28:07;6.07;;;2.80;;
24147;SDS011;12309;51.450;-2.624;2024-01-30T07:30:37;9.23;;;3.20;;
24147;SDS011;12309;51.450;-2.624;2024-01-30T07:33:03;12.80;;;3.70;;
24147;SDS011;12309;51.450;-2.624;2024-01-30T07:35:28;10.80;;;3.60;;
24147;SDS011;12309;51.450;-2.624;2024-01-30T07:37:54;9.47;;;3.23;;
24147;SDS011;12309;51.450;-2.624;2024-01-30T07:40:21;6.43;;;2.77;;
24147;SDS011;12309;51.450;-2.624;2024-01-30T07:42:50;9.53;;;3.30;;
24147;SDS011;12309;51.450;-2.624;2024-01-30T07:45:16;6.63;;;2.93;;
24147;SDS011;12309;51.450;-2.624;2024-01-30T07:47:46;10.27;;;3.60;;
24147;SDS011;12309;51.450;-2.624;2024-01-30T07:50:11;8.00;;;2.90;;
24147;SDS011;12309;51.450;-2.624;2024-01-30T07:52:37;9.70;;;3.17;;
24147;SDS011;12309;51.450;-2.624;2024-01-30T07:55:04;7.77;;;2.73;;
24147;SDS011;12309;51.450;-2.624;2024-01-30T07:57:32;8.00;;;3.10;;
24147;SDS011;12309;51.450;-2.624;2024-01-30T07:59:59;10.33;;;3.10;;
24147;SDS011;12309;51.450;-2.624;2024-01-30T08:02:25;12.43;;;3.27;;
24147;SDS011;12309;51.450;-2.624;2024-01-30T08:04:51;11.53;;;3.30;;
24147;SDS011;12309;51.450;-2.624;2024-01-30T08:07:16;6.27;;;2.80;;
24147;SDS011;12309;51.450;-2.624;2024-01-30T08:09:43;9.93;;;3.10;;
24147;SDS011;12309;51.450;-2.624;2024-01-30T08:12:09;12.13;;;3.30;;
24147;SDS011;12309;51.450;-2.624;2024-01-30T08:14:34;12.60;;;3.20;;
24147;SDS011;12309;51.450;-2.624;2024-01-30T08:17:00;8.20;;;2.73;;
24147;SDS011;12309;51.450;-2.624;2024-01-30T08:19:26;8.90;;;2.97;;
24147;SDS011;12309;51.450;-2.624;2024-01-30T08:21:52;14.60;;;3.37;;
24147;SDS011;12309;51.450;-2.624;2024-01-30T08:24:18;9.37;;;3.20;;
24147;SDS011;12309;51.450;-2.624;2024-01-30T08:26:44;16.77;;;3.73;;
24147;SDS011;12309;51.450;-2.624;2024-01-30T08:29:10;9.50;;;3.10;;
24147;SDS011;12309;51.450;-2.624;2024-01-30T08:31:35;12.47;;;3.47;;
24147;SDS011;12309;51.450;-2.624;2024-01-30T08:34:01;10.70;;;3.00;;
24147;SDS011;12309;51.450;-2.624;2024-01-30T08:36:27;12.90;;;4.97;;
24147;SDS011;12309;51.450;-2.624;2024-01-30T08:38:53;11.70;;;3.20;;
24147;SDS011;12309;51.450;-2.624;2024-01-30T08:41:19;7.87;;;2.70;;
24147;SDS011;12309;51.450;-2.624;2024-01-30T08:43:45;9.23;;;3.27;;
24147;SDS011;12309;51.450;-2.624;2024-01-30T08:46:11;8.40;;;2.90;;
24147;SDS011;12309;51.450;-2.624;2024-01-30T08:48:37;18.67;;;5.67;;
24147;SDS011;12309;51.450;-2.624;2024-01-30T08:51:03;19.07;;;7.20;;
24147;SDS011;12309;51.450;-2.624;2024-01-30T08:53:28;13.50;;;4.10;;
24147;SDS011;12309;51.450;-2.624;2024-01-30T08:55:54;12.77;;;3.67;;
24147;SDS011;12309;51.450;-2.624;2024-01-30T08:58:20;17.77;;;4.23;;
24147;SDS011;12309;51.450;-2.624;2024-01-30T09:00:46;14.93;;;4.80;;
24147;SDS011;12309;51.450;-2.624;2024-01-30T09:03:12;12.77;;;3.53;;
24147;SDS011;12309;51.450;-2.624;2024-01-30T09:05:38;14.17;;;3.60;;
24147;SDS011;12309;51.450;-2.624;2024-01-30T09:08:04;12.80;;;3.23;;
24147;SDS011;12309;51.450;-2.624;2024-01-30T09:10:29;15.07;;;4.23;;
24147;SDS011;12309;51.450;-2.624;2024-01-30T09:12:56;14.40;;;3.30;;
24147;SDS011;12309;51.450;-2.624;2024-01-30T09:15:21;13.13;;;3.07;;
24147;SDS011;12309;51.450;-2.624;2024-01-30T09:17:47;18.53;;;3.03;;
24147;SDS011;12309;51.450;-2.624;2024-01-30T09:20:13;10.70;;;2.55;;
24147;SDS011;12309;51.450;-2.624;2024-01-30T09:22:39;13.10;;;3.08;;
24147;SDS011;12309;51.450;-2.624;2024-01-30T09:25:05;16.27;;;3.03;;
24147;SDS011;12309;51.450;-2.624;2024-01-30T09:27:31;15.23;;;2.93;;
24147;SDS011;12309;51.450;-2.624;2024-01-30T09:29:56;7.93;;;2.20;;
24147;SDS011;12309;51.450;-2.624;2024-01-30T09:32:22;10.07;;;2.80;;
24147;SDS011;12309;51.450;-2.624;2024-01-30T09:34:48;12.10;;;2.30;;
24147;SDS011;12309;51.450;-2.624;2024-01-30T09:37:14;15.70;;;2.63;;
24147;SDS011;12309;51.450;-2.624;2024-01-30T09:39:42;13.10;;;1.97;;
24147;SDS011;12309;51.450;-2.624;2024-01-30T09:44:43;9.30;;;2.07;;
24147;SDS011;12309;51.450;-2.624;2024-01-30T09:47:09;12.27;;;1.90;;
24147;SDS011;12309;51.450;-2.624;2024-01-30T09:49:35;9.87;;;2.43;;
24147;SDS011;12309;51.450;-2.624;2024-01-30T09:52:03;13.73;;;2.27;;
24147;SDS011;12309;51.450;-2.624;2024-01-30T09:54:30;12.13;;;2.10;;
24147;SDS011;12309;51.450;-2.624;2024-01-30T09:56:57;8.60;;;2.10;;
24147;SDS011;12309;51.450;-2.624;2024-01-30T09:59:23;13.87;;;2.77;;
24147;SDS011;12309;51.450;-2.624;2024-01-30T10:01:50;11.80;;;2.80;;
24147;SDS011;12309;51.450;-2.624;2024-01-30T10:04:16;10.00;;;2.50;;
24147;SDS011;12309;51.450;-2.624;2024-01-30T10:06:42;9.30;;;2.50;;
24147;SDS011;12309;51.450;-2.624;2024-01-30T10:09:08;12.63;;;2.83;;
24147;SDS011;12309;51.450;-2.624;2024-01-30T10:11:34;11.00;;;2.67;;
24147;SDS011;12309;51.450;-2.624;2024-01-30T10:14:01;10.87;;;2.93;;
24147;SDS011;12309;51.450;-2.624;2024-01-30T10:16:27;15.93;;;3.20;;
24147;SDS011;12309;51.450;-2.624;2024-01-30T10:18:53;14.37;;;3.33;;
24147;SDS011;12309;51.450;-2.624;2024-01-30T10:21:19;18.57;;;2.90;;
24147;SDS011;12309;51.450;-2.624;2024-01-30T10:23:44;7.20;;;2.63;;
24147;SDS011;12309;51.450;-2.624;2024-01-30T10:26:10;12.63;;;2.93;;
24147;SDS011;12309;51.450;-2.624;2024-01-30T10:28:36;10.47;;;2.40;;
24147;SDS011;12309;51.450;-2.624;2024-01-30T10:31:02;7.17;;;2.43;;
24147;SDS011;12309;51.450;-2.624;2024-01-30T10:33:29;12.07;;;2.50;;
24147;SDS011;12309;51.450;-2.624;2024-01-30T10:35:56;7.97;;;2.37;;
24147;SDS011;12309;51.450;-2.624;2024-01-30T10:38:30;11.97;;;2.40;;
24147;SDS011;12309;51.450;-2.624;2024-01-30T10:40:57;8.43;;;2.20;;
24147;SDS011;12309;51.450;-2.624;2024-01-30T10:43:29;6.67;;;2.20;;
24147;SDS011;12309;51.450;-2.624;2024-01-30T10:46:07;5.67;;;2.17;;
24147;SDS011;12309;51.450;-2.624;2024-01-30T10:48:46;9.93;;;2.40;;
24147;SDS011;12309;51.450;-2.624;2024-01-30T10:51:19;8.53;;;2.30;;
24147;SDS011;12309;51.450;-2.624;2024-01-30T10:53:47;9.70;;;2.40;;
24147;SDS011;12309;51.450;-2.624;2024-01-30T10:56:16;5.87;;;1.77;;
24147;SDS011;12309;51.450;-2.624;2024-01-30T10:58:42;9.73;;;2.10;;
24147;SDS011;12309;51.450;-2.624;2024-01-30T11:01:07;6.47;;;2.00;;
24147;SDS011;12309;51.450;-2.624;2024-01-30T11:03:34;15.00;;;2.10;;
24147;SDS011;12309;51.450;-2.624;2024-01-30T11:06:01;6.83;;;1.73;;
24147;SDS011;12309;51.450;-2.624;2024-01-30T11:08:28;3.73;;;1.30;;
24147;SDS011;12309;51.450;-2.624;2024-01-30T11:10:55;5.63;;;1.60;;
24147;SDS011;12309;51.450;-2.624;2024-01-30T11:13:22;13.43;;;2.23;;
24147;SDS011;12309;51.450;-2.624;2024-01-30T11:15:52;6.63;;;1.90;;
24147;SDS011;12309;51.450;-2.624;2024-01-30T11:18:51;4.03;;;1.63;;
24147;SDS011;12309;51.450;-2.624;2024-01-30T11:21:14;9.80;;;1.73;;
24147;SDS011;12309;51.450;-2.624;2024-01-30T11:23:40;8.67;;;1.93;;
24147;SDS011;12309;51.450;-2.624;2024-01-30T11:26:10;6.13;;;1.87;;
24147;SDS011;12309;51.450;-2.624;2024-01-30T11:28:36;5.67;;;1.70;;
24147;SDS011;12309;51.450;-2.624;2024-01-30T11:31:03;8.30;;;1.87;;
24147;SDS011;12309;51.450;-2.624;2024-01-30T11:33:30;5.43;;;1.90;;
24147;SDS011;12309;51.450;-2.624;2024-01-30T11:35:59;7.87;;;1.80;;
24147;SDS011;12309;51.450;-2.624;2024-01-30T11:38:25;6.17;;;1.77;;
24147;SDS011;12309;51.450;-2.624;2024-01-30T11:40:55;7.90;;;1.80;;
24147;SDS011;12309;51.450;-2.624;2024-01-30T11:43:23;10.97;;;2.07;;
24147;SDS011;12309;51.450;-2.624;2024-01-30T11:45:49;5.13;;;2.00;;
24147;SDS011;12309;51.450;-2.624;2024-01-30T11:48:15;4.70;;;1.77;;
24147;SDS011;12309;51.450;-2.624;2024-01-30T11:50:42;8.80;;;1.97;;
24147;SDS011;12309;51.450;-2.624;2024-01-30T11:53:11;10.17;;;1.90;;
24147;SDS011;12309;51.450;-2.624;2024-01-30T11:55:37;7.60;;;1.87;;
24147;SDS011;12309;51.450;-2.624;2024-01-30T11:58:03;7.67;;;1.97;;
24147;SDS011;12309;51.450;-2.624;2024-01-30T12:00:29;4.80;;;1.80;;
24147;SDS011;12309;51.450;-2.624;2024-01-30T12:02:58;7.97;;;2.10;;
24147;SDS011;12309;51.450;-2.624;2024-01-30T12:05:25;7.97;;;1.87;;
24147;SDS011;12309;51.450;-2.624;2024-01-30T12:07:52;6.37;;;1.67;;
24147;SDS011;12309;51.450;-2.624;2024-01-30T12:10:18;7.00;;;1.33;;
24147;SDS011;12309;51.450;-2.624;2024-01-30T12:12:48;10.13;;;1.67;;
24147;SDS011;12309;51.450;-2.624;2024-01-30T12:15:15;6.77;;;1.67;;
24147;SDS011;12309;51.450;-2.624;2024-01-30T12:17:41;5.10;;;1.40;;
24147;SDS011;12309;51.450;-2.624;2024-01-30T12:25:08;11.87;;;1.90;;
24147;SDS011;12309;51.450;-2.624;2024-01-30T12:27:47;7.63;;;1.80;;
24147;SDS011;12309;51.450;-2.624;2024-01-30T12:30:17;13.03;;;2.00;;
24147;SDS011;12309;51.450;-2.624;2024-01-30T12:32:44;8.40;;;2.33;;
24147;SDS011;12309;51.450;-2.624;2024-01-30T12:35:11;8.87;;;1.67;;
24147;SDS011;12309;51.450;-2.624;2024-01-30T12:37:38;7.87;;;1.83;;
24147;SDS011;12309;51.450;-2.624;2024-01-30T12:40:05;6.17;;;1.60;;
24147;SDS011;12309;51.450;-2.624;2024-01-30T12:42:35;10.73;;;1.67;;
24147;SDS011;12309;51.450;-2.624;2024-01-30T12:45:04;10.30;;;1.80;;
24147;SDS011;12309;51.450;-2.624;2024-01-30T12:47:31;7.77;;;1.60;;
24147;SDS011;12309;51.450;-2.624;2024-01-30T12:49:57;5.13;;;1.30;;
24147;SDS011;12309;51.450;-2.624;2024-01-30T12:52:23;8.90;;;1.80;;
24147;SDS011;12309;51.450;-2.624;2024-01-30T12:54:49;9.03;;;1.80;;
24147;SDS011;12309;51.450;-2.624;2024-01-30T12:57:15;6.30;;;1.23;;
24147;SDS011;12309;51.450;-2.624;2024-01-30T12:59:42;8.53;;;1.70;;
24147;SDS011;12309;51.450;-2.624;2024-01-30T13:02:08;7.40;;;1.67;;
24147;SDS011;12309;51.450;-2.624;2024-01-30T13:04:34;3.80;;;1.40;;
24147;SDS011;12309;51.450;-2.624;2024-01-30T13:07:00;8.07;;;1.60;;
24147;SDS011;12309;51.450;-2.624;2024-01-30T13:09:26;7.10;;;1.27;;
24147;SDS011;12309;51.450;-2.624;2024-01-30T13:11:51;4.73;;;1.20;;
24147;SDS011;12309;51.450;-2.624;2024-01-30T13:14:19;5.40;;;1.10;;
24147;SDS011;12309;51.450;-2.624;2024-01-30T13:16:44;5.20;;;1.10;;
24147;SDS011;12309;51.450;-2.624;2024-01-30T13:19:10;4.87;;;1.10;;
24147;SDS011;12309;51.450;-2.624;2024-01-30T13:21:36;5.20;;;1.17;;
24147;SDS011;12309;51.450;-2.624;2024-01-30T13:24:02;5.40;;;0.90;;
24147;SDS011;12309;51.450;-2.624;2024-01-30T13:26:28;3.67;;;1.00;;
24147;SDS011;12309;51.450;-2.624;2024-01-30T13:28:56;12.13;;;1.07;;
24147;SDS011;12309;51.450;-2.624;2024-01-30T13:31:21;12.17;;;1.87;;
24147;SDS011;12309;51.450;-2.624;2024-01-30T13:33:47;2.37;;;0.97;;
24147;SDS011;12309;51.450;-2.624;2024-01-30T13:36:14;5.73;;;0.70;;
24147;SDS011;12309;51.450;-2.624;2024-01-30T13:38:39;1.87;;;0.93;;
24147;SDS011;12309;51.450;-2.624;2024-01-30T13:41:05;2.33;;;0.70;;
24147;SDS011;12309;51.450;-2.624;2024-01-30T13:43:31;12.07;;;1.27;;
24147;SDS011;12309;51.450;-2.624;2024-01-30T13:45:57;5.00;;;1.10;;
24147;SDS011;12309;51.450;-2.624;2024-01-30T13:48:23;3.57;;;0.80;;
24147;SDS011;12309;51.450;-2.624;2024-01-30T13:50:48;5.23;;;1.10;;
24147;SDS011;12309;51.450;-2.624;2024-01-30T13:53:15;5.67;;;1.63;;
24147;SDS011;12309;51.450;-2.624;2024-01-30T13:55:41;6.80;;;1.33;;
24147;SDS011;12309;51.450;-2.624;2024-01-30T13:58:06;7.93;;;1.73;;
24147;SDS011;12309;51.450;-2.624;2024-01-30T14:00:33;6.93;;;1.40;;
24147;SDS011;12309;51.450;-2.624;2024-01-30T14:02:59;10.30;;;1.43;;
24147;SDS011;12309;51.450;-2.624;2024-01-30T14:05:25;4.20;;;1.00;;
24147;SDS011;12309;51.450;-2.624;2024-01-30T14:07:53;6.30;;;1.53;;
24147;SDS011;12309;51.450;-2.624;2024-01-30T14:10:19;7.80;;;1.13;;
24147;SDS011;12309;51.450;-2.624;2024-01-30T14:12:45;5.97;;;1.20;;
24147;SDS011;12309;51.450;-2.624;2024-01-30T14:15:13;12.13;;;1.33;;
24147;SDS011;12309;51.450;-2.624;2024-01-30T14:17:43;7.70;;;1.57;;
24147;SDS011;12309;51.450;-2.624;2024-01-30T14:20:10;5.37;;;1.33;;
24147;SDS011;12309;51.450;-2.624;2024-01-30T14:22:36;5.97;;;1.30;;
24147;SDS011;12309;51.450;-2.624;2024-01-30T14:25:02;4.13;;;1.43;;
24147;SDS011;12309;51.450;-2.624;2024-01-30T14:27:29;7.20;;;2.20;;
24147;SDS011;12309;51.450;-2.624;2024-01-30T14:29:55;4.97;;;1.20;;
24147;SDS011;12309;51.450;-2.624;2024-01-30T14:32:21;6.63;;;1.50;;
24147;SDS011;12309;51.450;-2.624;2024-01-30T14:34:48;5.33;;;1.40;;